sensor_id;sensor_type;location;lat;lon;timestamp;P1;durP1;ratioP1;P2;durP2;ratioP2
53207;SDS011;39093;52.788;6.940;2022-09-09T00:02:01;27.17;;;15.70;;
53207;SDS011;39093;52.788;6.940;2022-09-09T00:05:31;27.10;;;14.43;;
53207;SDS011;39093;52.788;6.940;2022-09-09T00:07:41;38.65;;;17.20;;
53207;SDS011;39093;52.788;6.940;2022-09-09T00:13:04;25.05;;;13.88;;
53207;SDS011;39093;52.788;6.940;2022-09-09T00:19:04;30.60;;;14.98;;
53207;SDS011;39093;52.788;6.940;2022-09-09T00:21:53;24.38;;;13.93;;
53207;SDS011;39093;52.788;6.940;2022-09-09T00:24:29;32.10;;;15.18;;
53207;SDS011;39093;52.788;6.940;2022-09-09T00:27:16;33.75;;;15.45;;
53207;SDS011;39093;52.788;6.940;2022-09-09T00:30:14;27.58;;;15.40;;
53207;SDS011;39093;52.788;6.940;2022-09-09T00:32:58;32.72;;;14.35;;
53207;SDS011;39093;52.788;6.940;2022-09-09T00:40:51;30.02;;;15.13;;
53207;SDS011;39093;52.788;6.940;2022-09-09T00:48:51;31.15;;;13.52;;
53207;SDS011;39093;52.788;6.940;2022-09-09T00:57:29;21.85;;;10.93;;
53207;SDS011;39093;52.788;6.940;2022-09-09T01:06:01;18.00;;;10.45;;
53207;SDS011;39093;52.788;6.940;2022-09-09T01:08:58;13.93;;;10.40;;
53207;SDS011;39093;52.788;6.940;2022-09-09T01:17:12;18.58;;;14.60;;
53207;SDS011;39093;52.788;6.940;2022-09-09T01:20:02;19.13;;;14.95;;
53207;SDS011;39093;52.788;6.940;2022-09-09T01:28:13;18.15;;;13.75;;
53207;SDS011;39093;52.788;6.940;2022-09-09T01:30:45;15.27;;;10.63;;
53207;SDS011;39093;52.788;6.940;2022-09-09T01:33:13;24.55;;;12.75;;
53207;SDS011;39093;52.788;6.940;2022-09-09T01:35:50;17.38;;;10.73;;
53207;SDS011;39093;52.788;6.940;2022-09-09T01:38:22;12.25;;;6.75;;
53207;SDS011;39093;52.788;6.940;2022-09-09T01:40:51;12.00;;;6.97;;
53207;SDS011;39093;52.788;6.940;2022-09-09T01:43:22;10.20;;;6.00;;
53207;SDS011;39093;52.788;6.940;2022-09-09T01:45:53;10.43;;;6.03;;
53207;SDS011;39093;52.788;6.940;2022-09-09T01:48:22;10.15;;;6.47;;
53207;SDS011;39093;52.788;6.940;2022-09-09T01:50:51;14.23;;;5.75;;
53207;SDS011;39093;52.788;6.940;2022-09-09T01:53:19;8.63;;;5.40;;
53207;SDS011;39093;52.788;6.940;2022-09-09T02:10:16;12.82;;;6.25;;
53207;SDS011;39093;52.788;6.940;2022-09-09T02:12:50;8.40;;;6.00;;
53207;SDS011;39093;52.788;6.940;2022-09-09T02:15:36;9.05;;;6.00;;
53207;SDS011;39093;52.788;6.940;2022-09-09T02:18:11;10.38;;;5.70;;
53207;SDS011;39093;52.788;6.940;2022-09-09T02:20:41;13.30;;;6.28;;
53207;SDS011;39093;52.788;6.940;2022-09-09T02:23:13;10.30;;;5.80;;
53207;SDS011;39093;52.788;6.940;2022-09-09T02:25:41;13.48;;;5.88;;
53207;SDS011;39093;52.788;6.940;2022-09-09T02:28:10;11.02;;;6.13;;
53207;SDS011;39093;52.788;6.940;2022-09-09T02:30:40;10.98;;;6.15;;
53207;SDS011;39093;52.788;6.940;2022-09-09T02:33:12;11.57;;;6.57;;
53207;SDS011;39093;52.788;6.940;2022-09-09T02:35:41;12.75;;;6.43;;
53207;SDS011;39093;52.788;6.940;2022-09-09T02:38:14;13.73;;;6.78;;
53207;SDS011;39093;52.788;6.940;2022-09-09T02:40:42;8.15;;;6.32;;
53207;SDS011;39093;52.788;6.940;2022-09-09T02:43:09;10.05;;;6.57;;
53207;SDS011;39093;52.788;6.940;2022-09-09T02:45:40;10.05;;;6.68;;
53207;SDS011;39093;52.788;6.940;2022-09-09T02:51:06;10.30;;;6.63;;
53207;SDS011;39093;52.788;6.940;2022-09-09T02:54:30;14.88;;;7.43;;
53207;SDS011;39093;52.788;6.940;2022-09-09T02:56:46;10.13;;;7.05;;
53207;SDS011;39093;52.788;6.940;2022-09-09T02:59:17;11.55;;;6.43;;
53207;SDS011;39093;52.788;6.940;2022-09-09T03:01:46;10.95;;;6.80;;
53207;SDS011;39093;52.788;6.940;2022-09-09T03:04:13;16.88;;;6.53;;
53207;SDS011;39093;52.788;6.940;2022-09-09T03:06:40;12.13;;;6.20;;
53207;SDS011;39093;52.788;6.940;2022-09-09T03:09:07;9.00;;;5.55;;
53207;SDS011;39093;52.788;6.940;2022-09-09T03:11:36;11.05;;;5.68;;
53207;SDS011;39093;52.788;6.940;2022-09-09T03:14:04;14.40;;;5.40;;
53207;SDS011;39093;52.788;6.940;2022-09-09T03:16:31;14.48;;;6.28;;
53207;SDS011;39093;52.788;6.940;2022-09-09T03:19:00;7.20;;;4.80;;
53207;SDS011;39093;52.788;6.940;2022-09-09T03:21:27;8.57;;;4.50;;
53207;SDS011;39093;52.788;6.940;2022-09-09T03:23:54;7.32;;;4.35;;
53207;SDS011;39093;52.788;6.940;2022-09-09T03:26:22;10.07;;;3.97;;
53207;SDS011;39093;52.788;6.940;2022-09-09T03:28:49;4.90;;;3.47;;
53207;SDS011;39093;52.788;6.940;2022-09-09T03:31:18;5.22;;;2.78;;
53207;SDS011;39093;52.788;6.940;2022-09-09T03:33:45;12.18;;;3.25;;
53207;SDS011;39093;52.788;6.940;2022-09-09T03:36:13;5.90;;;2.50;;
53207;SDS011;39093;52.788;6.940;2022-09-09T03:38:40;4.28;;;2.15;;
53207;SDS011;39093;52.788;6.940;2022-09-09T03:41:07;2.72;;;1.40;;
53207;SDS011;39093;52.788;6.940;2022-09-09T03:43:35;6.60;;;2.05;;
53207;SDS011;39093;52.788;6.940;2022-09-09T03:46:02;2.95;;;1.73;;
53207;SDS011;39093;52.788;6.940;2022-09-09T03:48:29;5.18;;;2.40;;
53207;SDS011;39093;52.788;6.940;2022-09-09T03:50:56;4.68;;;3.30;;
53207;SDS011;39093;52.788;6.940;2022-09-09T03:53:26;7.80;;;3.30;;
53207;SDS011;39093;52.788;6.940;2022-09-09T03:55:54;7.78;;;4.60;;
53207;SDS011;39093;52.788;6.940;2022-09-09T03:58:22;9.32;;;5.50;;
53207;SDS011;39093;52.788;6.940;2022-09-09T04:00:53;9.98;;;6.65;;
53207;SDS011;39093;52.788;6.940;2022-09-09T04:03:25;23.50;;;7.70;;
53207;SDS011;39093;52.788;6.940;2022-09-09T04:05:54;12.18;;;8.00;;
53207;SDS011;39093;52.788;6.940;2022-09-09T04:08:23;16.90;;;8.32;;
53207;SDS011;39093;52.788;6.940;2022-09-09T04:10:53;15.35;;;9.35;;
53207;SDS011;39093;52.788;6.940;2022-09-09T04:13:24;11.93;;;8.68;;
53207;SDS011;39093;52.788;6.940;2022-09-09T04:15:56;11.90;;;9.60;;
53207;SDS011;39093;52.788;6.940;2022-09-09T04:18:24;17.88;;;10.52;;
53207;SDS011;39093;52.788;6.940;2022-09-09T04:20:52;12.88;;;8.93;;
53207;SDS011;39093;52.788;6.940;2022-09-09T04:23:20;15.60;;;10.25;;
53207;SDS011;39093;52.788;6.940;2022-09-09T04:25:48;18.33;;;10.90;;
53207;SDS011;39093;52.788;6.940;2022-09-09T04:28:20;17.30;;;9.50;;
53207;SDS011;39093;52.788;6.940;2022-09-09T04:30:50;12.80;;;9.70;;
53207;SDS011;39093;52.788;6.940;2022-09-09T04:33:17;14.23;;;9.65;;
53207;SDS011;39093;52.788;6.940;2022-09-09T04:35:45;14.50;;;9.30;;
53207;SDS011;39093;52.788;6.940;2022-09-09T04:38:14;16.35;;;9.30;;
53207;SDS011;39093;52.788;6.940;2022-09-09T04:40:42;15.60;;;9.48;;
53207;SDS011;39093;52.788;6.940;2022-09-09T04:43:11;12.50;;;9.02;;
53207;SDS011;39093;52.788;6.940;2022-09-09T04:45:40;18.08;;;10.25;;
53207;SDS011;39093;52.788;6.940;2022-09-09T04:48:13;12.15;;;9.35;;
53207;SDS011;39093;52.788;6.940;2022-09-09T04:50:40;16.50;;;10.00;;
53207;SDS011;39093;52.788;6.940;2022-09-09T04:53:07;18.60;;;11.60;;
53207;SDS011;39093;52.788;6.940;2022-09-09T04:55:34;20.90;;;10.45;;
53207;SDS011;39093;52.788;6.940;2022-09-09T04:58:05;17.90;;;10.05;;
53207;SDS011;39093;52.788;6.940;2022-09-09T05:00:33;13.43;;;9.88;;
53207;SDS011;39093;52.788;6.940;2022-09-09T05:03:03;20.67;;;9.98;;
53207;SDS011;39093;52.788;6.940;2022-09-09T05:05:31;20.67;;;10.48;;
53207;SDS011;39093;52.788;6.940;2022-09-09T05:08:04;15.80;;;11.15;;
53207;SDS011;39093;52.788;6.940;2022-09-09T05:10:32;14.30;;;9.95;;
53207;SDS011;39093;52.788;6.940;2022-09-09T05:13:00;15.52;;;9.85;;
53207;SDS011;39093;52.788;6.940;2022-09-09T05:15:27;18.92;;;9.30;;
53207;SDS011;39093;52.788;6.940;2022-09-09T05:18:01;13.73;;;8.77;;
53207;SDS011;39093;52.788;6.940;2022-09-09T05:20:28;12.32;;;9.57;;
53207;SDS011;39093;52.788;6.940;2022-09-09T05:22:55;13.52;;;8.80;;
53207;SDS011;39093;52.788;6.940;2022-09-09T05:25:23;10.13;;;8.52;;
53207;SDS011;39093;52.788;6.940;2022-09-09T05:27:52;17.35;;;10.00;;
53207;SDS011;39093;52.788;6.940;2022-09-09T05:30:20;22.83;;;9.45;;
53207;SDS011;39093;52.788;6.940;2022-09-09T05:32:49;11.90;;;9.30;;
53207;SDS011;39093;52.788;6.940;2022-09-09T05:35:16;13.27;;;9.25;;
53207;SDS011;39093;52.788;6.940;2022-09-09T05:37:45;12.15;;;9.02;;
53207;SDS011;39093;52.788;6.940;2022-09-09T05:40:12;12.35;;;8.27;;
53207;SDS011;39093;52.788;6.940;2022-09-09T05:42:40;9.10;;;8.20;;
53207;SDS011;39093;52.788;6.940;2022-09-09T05:45:08;12.80;;;8.10;;
53207;SDS011;39093;52.788;6.940;2022-09-09T05:47:35;10.35;;;7.63;;
53207;SDS011;39093;52.788;6.940;2022-09-09T05:50:03;9.23;;;7.75;;
53207;SDS011;39093;52.788;6.940;2022-09-09T05:52:31;11.00;;;7.55;;
53207;SDS011;39093;52.788;6.940;2022-09-09T05:54:58;12.00;;;7.15;;
53207;SDS011;39093;52.788;6.940;2022-09-09T05:57:26;13.32;;;7.78;;
53207;SDS011;39093;52.788;6.940;2022-09-09T05:59:53;11.75;;;8.18;;
53207;SDS011;39093;52.788;6.940;2022-09-09T06:02:23;11.50;;;6.72;;
53207;SDS011;39093;52.788;6.940;2022-09-09T06:04:50;9.52;;;7.20;;
53207;SDS011;39093;52.788;6.940;2022-09-09T06:07:17;12.68;;;7.55;;
53207;SDS011;39093;52.788;6.940;2022-09-09T06:09:44;10.23;;;7.32;;
53207;SDS011;39093;52.788;6.940;2022-09-09T06:12:11;8.02;;;7.22;;
53207;SDS011;39093;52.788;6.940;2022-09-09T06:14:38;11.05;;;7.82;;
53207;SDS011;39093;52.788;6.940;2022-09-09T06:17:11;9.40;;;7.30;;
53207;SDS011;39093;52.788;6.940;2022-09-09T06:19:38;14.90;;;7.65;;
53207;SDS011;39093;52.788;6.940;2022-09-09T06:22:05;10.70;;;7.60;;
53207;SDS011;39093;52.788;6.940;2022-09-09T06:24:32;10.90;;;7.97;;
53207;SDS011;39093;52.788;6.940;2022-09-09T06:26:59;16.10;;;8.02;;
53207;SDS011;39093;52.788;6.940;2022-09-09T06:29:26;10.60;;;7.63;;
53207;SDS011;39093;52.788;6.940;2022-09-09T06:31:53;13.52;;;8.00;;
53207;SDS011;39093;52.788;6.940;2022-09-09T06:34:20;11.88;;;7.53;;
53207;SDS011;39093;52.788;6.940;2022-09-09T06:36:47;12.80;;;8.88;;
53207;SDS011;39093;52.788;6.940;2022-09-09T06:39:14;10.85;;;8.88;;
53207;SDS011;39093;52.788;6.940;2022-09-09T06:41:41;12.80;;;8.57;;
53207;SDS011;39093;52.788;6.940;2022-09-09T06:44:09;16.70;;;7.90;;
53207;SDS011;39093;52.788;6.940;2022-09-09T06:46:38;13.95;;;8.50;;
53207;SDS011;39093;52.788;6.940;2022-09-09T06:49:14;13.35;;;8.05;;
53207;SDS011;39093;52.788;6.940;2022-09-09T06:51:41;11.20;;;8.93;;
53207;SDS011;39093;52.788;6.940;2022-09-09T06:54:10;11.50;;;8.82;;
53207;SDS011;39093;52.788;6.940;2022-09-09T06:56:46;15.95;;;8.95;;
53207;SDS011;39093;52.788;6.940;2022-09-09T06:59:12;11.73;;;7.78;;
53207;SDS011;39093;52.788;6.940;2022-09-09T07:01:40;13.05;;;8.65;;
53207;SDS011;39093;52.788;6.940;2022-09-09T07:04:10;13.50;;;10.38;;
53207;SDS011;39093;52.788;6.940;2022-09-09T07:06:38;16.65;;;8.18;;
53207;SDS011;39093;52.788;6.940;2022-09-09T07:09:11;11.88;;;8.27;;
53207;SDS011;39093;52.788;6.940;2022-09-09T07:11:40;12.30;;;7.43;;
53207;SDS011;39093;52.788;6.940;2022-09-09T07:14:13;14.25;;;7.65;;
53207;SDS011;39093;52.788;6.940;2022-09-09T07:16:42;12.90;;;7.50;;
53207;SDS011;39093;52.788;6.940;2022-09-09T07:19:10;11.18;;;8.13;;
53207;SDS011;39093;52.788;6.940;2022-09-09T07:21:42;12.98;;;8.57;;
53207;SDS011;39093;52.788;6.940;2022-09-09T07:24:09;15.25;;;8.80;;
53207;SDS011;39093;52.788;6.940;2022-09-09T07:26:40;13.30;;;8.35;;
53207;SDS011;39093;52.788;6.940;2022-09-09T07:29:08;8.73;;;6.53;;
53207;SDS011;39093;52.788;6.940;2022-09-09T07:31:36;14.52;;;7.85;;
53207;SDS011;39093;52.788;6.940;2022-09-09T07:34:04;11.55;;;7.60;;
53207;SDS011;39093;52.788;6.940;2022-09-09T07:36:32;8.60;;;6.10;;
53207;SDS011;39093;52.788;6.940;2022-09-09T07:39:04;11.98;;;7.07;;
53207;SDS011;39093;52.788;6.940;2022-09-09T07:41:41;10.30;;;6.55;;
53207;SDS011;39093;52.788;6.940;2022-09-09T07:44:11;8.13;;;6.65;;
53207;SDS011;39093;52.788;6.940;2022-09-09T07:46:42;13.50;;;7.25;;
53207;SDS011;39093;52.788;6.940;2022-09-09T07:49:11;16.90;;;7.32;;
53207;SDS011;39093;52.788;6.940;2022-09-09T07:51:39;12.68;;;7.53;;
53207;SDS011;39093;52.788;6.940;2022-09-09T07:54:09;11.77;;;7.22;;
53207;SDS011;39093;52.788;6.940;2022-09-09T07:56:38;13.45;;;7.82;;
53207;SDS011;39093;52.788;6.940;2022-09-09T07:59:08;9.90;;;6.35;;
53207;SDS011;39093;52.788;6.940;2022-09-09T08:01:40;13.25;;;7.53;;
53207;SDS011;39093;52.788;6.940;2022-09-09T08:04:11;9.50;;;7.72;;
53207;SDS011;39093;52.788;6.940;2022-09-09T08:07:00;11.68;;;6.55;;
53207;SDS011;39093;52.788;6.940;2022-09-09T08:09:29;12.98;;;6.63;;
53207;SDS011;39093;52.788;6.940;2022-09-09T08:11:56;12.20;;;6.72;;
53207;SDS011;39093;52.788;6.940;2022-09-09T08:14:26;10.55;;;6.25;;
53207;SDS011;39093;52.788;6.940;2022-09-09T08:16:58;12.00;;;6.68;;
53207;SDS011;39093;52.788;6.940;2022-09-09T08:19:34;11.30;;;6.68;;
53207;SDS011;39093;52.788;6.940;2022-09-09T08:22:02;13.95;;;5.97;;
53207;SDS011;39093;52.788;6.940;2022-09-09T08:24:30;14.65;;;6.63;;
53207;SDS011;39093;52.788;6.940;2022-09-09T08:27:00;10.10;;;5.85;;
53207;SDS011;39093;52.788;6.940;2022-09-09T08:29:29;10.18;;;6.63;;
53207;SDS011;39093;52.788;6.940;2022-09-09T08:32:02;17.23;;;6.85;;
53207;SDS011;39093;52.788;6.940;2022-09-09T08:34:29;10.20;;;6.32;;
53207;SDS011;39093;52.788;6.940;2022-09-09T08:36:56;17.40;;;7.70;;
53207;SDS011;39093;52.788;6.940;2022-09-09T08:39:23;11.43;;;6.25;;
53207;SDS011;39093;52.788;6.940;2022-09-09T08:50:28;11.48;;;5.55;;
53207;SDS011;39093;52.788;6.940;2022-09-09T08:55:48;12.95;;;7.05;;
53207;SDS011;39093;52.788;6.940;2022-09-09T09:09:31;8.63;;;3.83;;
53207;SDS011;39093;52.788;6.940;2022-09-09T09:12:00;13.50;;;4.07;;
53207;SDS011;39093;52.788;6.940;2022-09-09T09:14:30;13.10;;;3.20;;
53207;SDS011;39093;52.788;6.940;2022-09-09T09:17:01;8.90;;;3.28;;
53207;SDS011;39093;52.788;6.940;2022-09-09T09:19:31;14.25;;;3.67;;
53207;SDS011;39093;52.788;6.940;2022-09-09T09:24:55;12.43;;;2.78;;
53207;SDS011;39093;52.788;6.940;2022-09-09T09:27:35;14.93;;;4.07;;
53207;SDS011;39093;52.788;6.940;2022-09-09T09:30:23;12.60;;;3.15;;
53207;SDS011;39093;52.788;6.940;2022-09-09T09:32:58;14.57;;;3.53;;
53207;SDS011;39093;52.788;6.940;2022-09-09T09:35:44;12.40;;;3.45;;
53207;SDS011;39093;52.788;6.940;2022-09-09T09:38:21;12.93;;;3.13;;
53207;SDS011;39093;52.788;6.940;2022-09-09T09:41:10;13.77;;;3.45;;
53207;SDS011;39093;52.788;6.940;2022-09-09T09:43:37;12.10;;;3.03;;
53207;SDS011;39093;52.788;6.940;2022-09-09T09:46:22;11.93;;;2.70;;
53207;SDS011;39093;52.788;6.940;2022-09-09T09:51:28;9.25;;;2.45;;
53207;SDS011;39093;52.788;6.940;2022-09-09T09:56:42;11.00;;;2.38;;
53207;SDS011;39093;52.788;6.940;2022-09-09T09:59:32;11.90;;;2.38;;
53207;SDS011;39093;52.788;6.940;2022-09-09T10:04:43;9.75;;;2.40;;
53207;SDS011;39093;52.788;6.940;2022-09-09T10:07:23;9.38;;;2.20;;
53207;SDS011;39093;52.788;6.940;2022-09-09T10:10:04;11.90;;;2.60;;
53207;SDS011;39093;52.788;6.940;2022-09-09T10:12:39;12.25;;;2.33;;
53207;SDS011;39093;52.788;6.940;2022-09-09T10:27:06;11.05;;;2.05;;
53207;SDS011;39093;52.788;6.940;2022-09-09T10:35:24;7.93;;;2.13;;
53207;SDS011;39093;52.788;6.940;2022-09-09T10:43:49;6.47;;;1.58;;
53207;SDS011;39093;52.788;6.940;2022-09-09T10:51:59;5.80;;;1.42;;
53207;SDS011;39093;52.788;6.940;2022-09-09T10:57:28;8.88;;;2.13;;
53207;SDS011;39093;52.788;6.940;2022-09-09T11:00:04;8.93;;;2.78;;
53207;SDS011;39093;52.788;6.940;2022-09-09T11:02:39;6.68;;;2.03;;
53207;SDS011;39093;52.788;6.940;2022-09-09T11:05:16;9.05;;;1.50;;
53207;SDS011;39093;52.788;6.940;2022-09-09T11:07:55;12.43;;;1.60;;
53207;SDS011;39093;52.788;6.940;2022-09-09T11:10:34;5.35;;;1.33;;
53207;SDS011;39093;52.788;6.940;2022-09-09T11:13:24;7.93;;;1.73;;
53207;SDS011;39093;52.788;6.940;2022-09-09T11:19:11;8.98;;;1.92;;
53207;SDS011;39093;52.788;6.940;2022-09-09T11:21:48;6.75;;;1.35;;
53207;SDS011;39093;52.788;6.940;2022-09-09T11:24:21;6.78;;;1.27;;
53207;SDS011;39093;52.788;6.940;2022-09-09T11:26:57;8.75;;;2.25;;
53207;SDS011;39093;52.788;6.940;2022-09-09T11:29:42;9.13;;;1.60;;
53207;SDS011;39093;52.788;6.940;2022-09-09T11:32:23;6.55;;;1.30;;
53207;SDS011;39093;52.788;6.940;2022-09-09T11:40:39;6.40;;;1.40;;
53207;SDS011;39093;52.788;6.940;2022-09-09T11:45:41;6.57;;;1.00;;
53207;SDS011;39093;52.788;6.940;2022-09-09T11:48:23;9.85;;;1.15;;
53207;SDS011;39093;52.788;6.940;2022-09-09T11:50:59;5.60;;;1.33;;
53207;SDS011;39093;52.788;6.940;2022-09-09T11:53:26;6.00;;;1.30;;
53207;SDS011;39093;52.788;6.940;2022-09-09T11:59:04;6.03;;;1.58;;
53207;SDS011;39093;52.788;6.940;2022-09-09T12:04:12;4.22;;;1.10;;
53207;SDS011;39093;52.788;6.940;2022-09-09T12:07:04;11.45;;;1.48;;
53207;SDS011;39093;52.788;6.940;2022-09-09T12:12:31;6.28;;;0.95;;
53207;SDS011;39093;52.788;6.940;2022-09-09T12:17:42;9.95;;;1.77;;
53207;SDS011;39093;52.788;6.940;2022-09-09T12:20:12;5.10;;;1.60;;
53207;SDS011;39093;52.788;6.940;2022-09-09T12:34:13;10.07;;;1.58;;
53207;SDS011;39093;52.788;6.940;2022-09-09T12:36:44;6.72;;;1.30;;
53207;SDS011;39093;52.788;6.940;2022-09-09T12:39:34;7.07;;;1.38;;
53207;SDS011;39093;52.788;6.940;2022-09-09T12:42:18;7.28;;;1.33;;
53207;SDS011;39093;52.788;6.940;2022-09-09T12:44:53;5.68;;;1.45;;
53207;SDS011;39093;52.788;6.940;2022-09-09T12:47:21;3.22;;;1.08;;
53207;SDS011;39093;52.788;6.940;2022-09-09T12:50:02;3.67;;;1.35;;
53207;SDS011;39093;52.788;6.940;2022-09-09T12:52:34;14.02;;;2.05;;
53207;SDS011;39093;52.788;6.940;2022-09-09T12:55:04;9.10;;;2.00;;
53207;SDS011;39093;52.788;6.940;2022-09-09T12:57:36;7.25;;;1.75;;
53207;SDS011;39093;52.788;6.940;2022-09-09T13:00:07;12.48;;;2.10;;
53207;SDS011;39093;52.788;6.940;2022-09-09T13:02:45;15.43;;;2.25;;
53207;SDS011;39093;52.788;6.940;2022-09-09T13:05:27;8.32;;;1.25;;
53207;SDS011;39093;52.788;6.940;2022-09-09T13:08:28;8.48;;;1.08;;
53207;SDS011;39093;52.788;6.940;2022-09-09T13:13:36;5.60;;;2.00;;
53207;SDS011;39093;52.788;6.940;2022-09-09T13:16:05;5.28;;;1.13;;
53207;SDS011;39093;52.788;6.940;2022-09-09T13:18:44;3.97;;;1.10;;
53207;SDS011;39093;52.788;6.940;2022-09-09T13:21:11;8.10;;;1.48;;
53207;SDS011;39093;52.788;6.940;2022-09-09T13:23:38;3.45;;;1.08;;
53207;SDS011;39093;52.788;6.940;2022-09-09T13:29:17;5.70;;;1.35;;
53207;SDS011;39093;52.788;6.940;2022-09-09T13:31:45;5.55;;;1.13;;
53207;SDS011;39093;52.788;6.940;2022-09-09T13:37:02;11.70;;;1.38;;
53207;SDS011;39093;52.788;6.940;2022-09-09T13:39:50;6.63;;;1.70;;
53207;SDS011;39093;52.788;6.940;2022-09-09T13:42:21;8.00;;;1.73;;
53207;SDS011;39093;52.788;6.940;2022-09-09T13:47:20;5.22;;;1.52;;
53207;SDS011;39093;52.788;6.940;2022-09-09T13:49:53;6.13;;;1.05;;
53207;SDS011;39093;52.788;6.940;2022-09-09T13:52:20;5.68;;;1.27;;
53207;SDS011;39093;52.788;6.940;2022-09-09T13:54:51;3.65;;;0.95;;
53207;SDS011;39093;52.788;6.940;2022-09-09T13:59:52;7.82;;;1.40;;
53207;SDS011;39093;52.788;6.940;2022-09-09T14:02:36;5.03;;;0.95;;
53207;SDS011;39093;52.788;6.940;2022-09-09T14:05:05;5.55;;;1.33;;
53207;SDS011;39093;52.788;6.940;2022-09-09T14:07:32;6.10;;;1.02;;
53207;SDS011;39093;52.788;6.940;2022-09-09T14:09:59;5.65;;;1.10;;
53207;SDS011;39093;52.788;6.940;2022-09-09T14:12:26;7.15;;;1.00;;
53207;SDS011;39093;52.788;6.940;2022-09-09T14:14:53;2.78;;;1.00;;
53207;SDS011;39093;52.788;6.940;2022-09-09T14:17:38;7.15;;;1.20;;
53207;SDS011;39093;52.788;6.940;2022-09-09T14:20:05;3.35;;;0.60;;
53207;SDS011;39093;52.788;6.940;2022-09-09T14:22:34;3.92;;;0.60;;
53207;SDS011;39093;52.788;6.940;2022-09-09T14:25:02;2.13;;;0.55;;
53207;SDS011;39093;52.788;6.940;2022-09-09T14:27:30;2.83;;;0.95;;
53207;SDS011;39093;52.788;6.940;2022-09-09T14:29:57;2.08;;;0.50;;
53207;SDS011;39093;52.788;6.940;2022-09-09T14:32:26;3.03;;;0.52;;
53207;SDS011;39093;52.788;6.940;2022-09-09T14:34:53;4.03;;;1.33;;
53207;SDS011;39093;52.788;6.940;2022-09-09T14:37:20;3.75;;;0.80;;
53207;SDS011;39093;52.788;6.940;2022-09-09T14:39:47;1.48;;;0.50;;
53207;SDS011;39093;52.788;6.940;2022-09-09T14:42:16;1.73;;;0.50;;
53207;SDS011;39093;52.788;6.940;2022-09-09T14:44:43;2.45;;;0.60;;
53207;SDS011;39093;52.788;6.940;2022-09-09T14:47:10;4.05;;;1.15;;
53207;SDS011;39093;52.788;6.940;2022-09-09T14:49:37;5.28;;;1.05;;
53207;SDS011;39093;52.788;6.940;2022-09-09T14:52:09;4.85;;;0.85;;
53207;SDS011;39093;52.788;6.940;2022-09-09T14:54:36;2.53;;;0.85;;
53207;SDS011;39093;52.788;6.940;2022-09-09T14:57:03;2.30;;;0.47;;
53207;SDS011;39093;52.788;6.940;2022-09-09T14:59:30;2.50;;;0.93;;
53207;SDS011;39093;52.788;6.940;2022-09-09T15:01:56;1.52;;;0.50;;
53207;SDS011;39093;52.788;6.940;2022-09-09T15:04:23;1.60;;;0.80;;
53207;SDS011;39093;52.788;6.940;2022-09-09T15:06:50;3.00;;;0.95;;
53207;SDS011;39093;52.788;6.940;2022-09-09T15:09:19;2.28;;;0.60;;
53207;SDS011;39093;52.788;6.940;2022-09-09T15:11:46;2.33;;;0.55;;
53207;SDS011;39093;52.788;6.940;2022-09-09T15:14:13;2.20;;;0.60;;
53207;SDS011;39093;52.788;6.940;2022-09-09T15:16:40;2.55;;;1.08;;
53207;SDS011;39093;52.788;6.940;2022-09-09T15:19:07;4.18;;;0.75;;
53207;SDS011;39093;52.788;6.940;2022-09-09T15:21:35;1.30;;;0.57;;
53207;SDS011;39093;52.788;6.940;2022-09-09T15:24:04;5.15;;;0.90;;
53207;SDS011;39093;52.788;6.940;2022-09-09T15:26:33;3.63;;;0.68;;
53207;SDS011;39093;52.788;6.940;2022-09-09T15:29:04;2.47;;;0.93;;
53207;SDS011;39093;52.788;6.940;2022-09-09T15:31:32;5.13;;;0.68;;
53207;SDS011;39093;52.788;6.940;2022-09-09T15:33:59;3.63;;;0.63;;
53207;SDS011;39093;52.788;6.940;2022-09-09T15:38:58;3.47;;;1.00;;
53207;SDS011;39093;52.788;6.940;2022-09-09T15:41:26;2.97;;;0.82;;
53207;SDS011;39093;52.788;6.940;2022-09-09T15:43:55;5.43;;;0.98;;
53207;SDS011;39093;52.788;6.940;2022-09-09T15:46:30;3.33;;;1.00;;
53207;SDS011;39093;52.788;6.940;2022-09-09T15:49:03;2.38;;;0.77;;
53207;SDS011;39093;52.788;6.940;2022-09-09T15:51:40;4.00;;;0.85;;
53207;SDS011;39093;52.788;6.940;2022-09-09T15:54:14;1.95;;;0.80;;
53207;SDS011;39093;52.788;6.940;2022-09-09T15:56:47;5.20;;;1.17;;
53207;SDS011;39093;52.788;6.940;2022-09-09T15:59:25;5.05;;;1.13;;
53207;SDS011;39093;52.788;6.940;2022-09-09T16:01:54;6.50;;;1.40;;
53207;SDS011;39093;52.788;6.940;2022-09-09T16:04:22;4.00;;;1.00;;
53207;SDS011;39093;52.788;6.940;2022-09-09T16:06:53;7.57;;;1.30;;
53207;SDS011;39093;52.788;6.940;2022-09-09T16:09:31;4.88;;;0.95;;
53207;SDS011;39093;52.788;6.940;2022-09-09T16:11:59;3.67;;;1.13;;
53207;SDS011;39093;52.788;6.940;2022-09-09T16:14:28;4.15;;;0.80;;
53207;SDS011;39093;52.788;6.940;2022-09-09T16:17:00;4.53;;;1.10;;
53207;SDS011;39093;52.788;6.940;2022-09-09T16:19:27;4.07;;;1.02;;
53207;SDS011;39093;52.788;6.940;2022-09-09T16:21:54;6.20;;;1.05;;
53207;SDS011;39093;52.788;6.940;2022-09-09T16:24:21;4.97;;;1.08;;
53207;SDS011;39093;52.788;6.940;2022-09-09T16:26:51;4.63;;;1.02;;
53207;SDS011;39093;52.788;6.940;2022-09-09T16:29:21;2.80;;;0.90;;
53207;SDS011;39093;52.788;6.940;2022-09-09T16:31:49;4.22;;;1.20;;
53207;SDS011;39093;52.788;6.940;2022-09-09T16:34:17;7.63;;;0.95;;
53207;SDS011;39093;52.788;6.940;2022-09-09T16:36:48;3.67;;;0.82;;
53207;SDS011;39093;52.788;6.940;2022-09-09T16:39:16;4.70;;;1.25;;
53207;SDS011;39093;52.788;6.940;2022-09-09T16:41:45;4.82;;;1.55;;
53207;SDS011;39093;52.788;6.940;2022-09-09T16:44:14;4.68;;;1.30;;
53207;SDS011;39093;52.788;6.940;2022-09-09T16:46:43;3.28;;;0.80;;
53207;SDS011;39093;52.788;6.940;2022-09-09T16:49:11;3.28;;;1.25;;
53207;SDS011;39093;52.788;6.940;2022-09-09T16:51:50;5.22;;;1.55;;
53207;SDS011;39093;52.788;6.940;2022-09-09T16:54:20;4.47;;;1.23;;
53207;SDS011;39093;52.788;6.940;2022-09-09T16:56:48;2.38;;;1.05;;
53207;SDS011;39093;52.788;6.940;2022-09-09T16:59:16;7.80;;;1.70;;
53207;SDS011;39093;52.788;6.940;2022-09-09T17:01:45;5.15;;;1.15;;
53207;SDS011;39093;52.788;6.940;2022-09-09T17:04:14;6.60;;;2.03;;
53207;SDS011;39093;52.788;6.940;2022-09-09T17:06:47;3.75;;;1.05;;
53207;SDS011;39093;52.788;6.940;2022-09-09T17:09:15;5.15;;;1.27;;
53207;SDS011;39093;52.788;6.940;2022-09-09T17:11:43;6.38;;;1.52;;
53207;SDS011;39093;52.788;6.940;2022-09-09T17:14:13;2.38;;;0.70;;
53207;SDS011;39093;52.788;6.940;2022-09-09T17:16:41;3.95;;;0.90;;
53207;SDS011;39093;52.788;6.940;2022-09-09T17:19:09;1.85;;;0.90;;
53207;SDS011;39093;52.788;6.940;2022-09-09T17:21:37;4.20;;;1.38;;
53207;SDS011;39093;52.788;6.940;2022-09-09T17:24:24;3.90;;;1.23;;
53207;SDS011;39093;52.788;6.940;2022-09-09T17:26:55;5.07;;;1.30;;
53207;SDS011;39093;52.788;6.940;2022-09-09T17:29:23;4.32;;;1.63;;
53207;SDS011;39093;52.788;6.940;2022-09-09T17:31:51;9.25;;;1.35;;
53207;SDS011;39093;52.788;6.940;2022-09-09T17:34:18;5.60;;;1.13;;
53207;SDS011;39093;52.788;6.940;2022-09-09T17:36:45;2.05;;;0.90;;
53207;SDS011;39093;52.788;6.940;2022-09-09T17:39:12;4.90;;;1.33;;
53207;SDS011;39093;52.788;6.940;2022-09-09T17:41:41;4.93;;;1.10;;
53207;SDS011;39093;52.788;6.940;2022-09-09T17:44:08;5.00;;;1.15;;
53207;SDS011;39093;52.788;6.940;2022-09-09T17:46:38;2.90;;;1.10;;
53207;SDS011;39093;52.788;6.940;2022-09-09T17:49:08;4.47;;;1.17;;
53207;SDS011;39093;52.788;6.940;2022-09-09T17:51:38;2.70;;;1.00;;
53207;SDS011;39093;52.788;6.940;2022-09-09T17:54:09;5.38;;;1.38;;
53207;SDS011;39093;52.788;6.940;2022-09-09T17:56:39;5.57;;;1.38;;
53207;SDS011;39093;52.788;6.940;2022-09-09T17:59:08;6.85;;;1.50;;